sensor_id;sensor_type;location;lat;lon;timestamp;temperature;humidity
20398;DHT22;10358;49.590;11.030;2023-07-20T00:01:28;18.90;99.90
20398;DHT22;10358;49.590;11.030;2023-07-20T00:03:54;18.90;99.90
20398;DHT22;10358;49.590;11.030;2023-07-20T00:06:23;18.90;99.90
20398;DHT22;10358;49.590;11.030;2023-07-20T00:08:50;18.90;99.90
20398;DHT22;10358;49.590;11.030;2023-07-20T00:11:16;18.80;99.90
20398;DHT22;10358;49.590;11.030;2023-07-20T00:13:42;18.80;99.90
20398;DHT22;10358;49.590;11.030;2023-07-20T00:16:07;18.70;99.90
20398;DHT22;10358;49.590;11.030;2023-07-20T00:18:33;18.80;99.90
20398;DHT22;10358;49.590;11.030;2023-07-20T00:20:59;18.80;99.90
20398;DHT22;10358;49.590;11.030;2023-07-20T00:23:25;18.80;99.90
20398;DHT22;10358;49.590;11.030;2023-07-20T00:25:51;18.80;99.90
20398;DHT22;10358;49.590;11.030;2023-07-20T00:28:17;18.80;99.90
20398;DHT22;10358;49.590;11.030;2023-07-20T00:30:42;18.80;99.90
20398;DHT22;10358;49.590;11.030;2023-07-20T00:33:10;18.70;99.90
20398;DHT22;10358;49.590;11.030;2023-07-20T00:35:37;18.70;99.90
20398;DHT22;10358;49.590;11.030;2023-07-20T00:38:03;18.70;99.90
20398;DHT22;10358;49.590;11.030;2023-07-20T00:40:35;18.70;99.90
20398;DHT22;10358;49.590;11.030;2023-07-20T00:43:00;18.60;99.90
20398;DHT22;10358;49.590;11.030;2023-07-20T00:45:26;18.50;99.90
20398;DHT22;10358;49.590;11.030;2023-07-20T00:47:52;18.60;99.90
20398;DHT22;10358;49.590;11.030;2023-07-20T00:50:17;18.50;99.90
20398;DHT22;10358;49.590;11.030;2023-07-20T00:52:43;18.50;99.90
20398;DHT22;10358;49.590;11.030;2023-07-20T00:55:09;18.50;99.90
20398;DHT22;10358;49.590;11.030;2023-07-20T00:57:35;18.50;99.90
20398;DHT22;10358;49.590;11.030;2023-07-20T01:00:01;18.60;99.90
20398;DHT22;10358;49.590;11.030;2023-07-20T01:02:26;18.60;99.90
20398;DHT22;10358;49.590;11.030;2023-07-20T01:04:52;18.50;99.90
20398;DHT22;10358;49.590;11.030;2023-07-20T01:07:29;18.40;99.90
20398;DHT22;10358;49.590;11.030;2023-07-20T01:10:18;18.30;99.90
20398;DHT22;10358;49.590;11.030;2023-07-20T01:12:50;18.30;99.90
20398;DHT22;10358;49.590;11.030;2023-07-20T01:15:16;18.30;99.90
20398;DHT22;10358;49.590;11.030;2023-07-20T01:17:42;18.30;99.90
20398;DHT22;10358;49.590;11.030;2023-07-20T01:20:09;18.20;99.90
20398;DHT22;10358;49.590;11.030;2023-07-20T01:22:55;18.20;99.90
20398;DHT22;10358;49.590;11.030;2023-07-20T01:31:17;18.00;99.90
20398;DHT22;10358;49.590;11.030;2023-07-20T01:33:44;18.00;99.90
20398;DHT22;10358;49.590;11.030;2023-07-20T01:36:11;18.10;99.90
20398;DHT22;10358;49.590;11.030;2023-07-20T01:38:37;18.10;99.90
20398;DHT22;10358;49.590;11.030;2023-07-20T01:41:03;18.20;99.90
20398;DHT22;10358;49.590;11.030;2023-07-20T01:43:29;18.20;99.90
20398;DHT22;10358;49.590;11.030;2023-07-20T01:45:54;18.10;99.90
20398;DHT22;10358;49.590;11.030;2023-07-20T01:48:20;18.10;99.90
20398;DHT22;10358;49.590;11.030;2023-07-20T01:50:45;18.10;99.90
20398;DHT22;10358;49.590;11.030;2023-07-20T01:53:11;18.10;99.90
20398;DHT22;10358;49.590;11.030;2023-07-20T01:55:37;18.10;99.90
20398;DHT22;10358;49.590;11.030;2023-07-20T01:58:02;18.10;99.90
20398;DHT22;10358;49.590;11.030;2023-07-20T02:00:29;18.20;99.90
20398;DHT22;10358;49.590;11.030;2023-07-20T02:02:54;18.20;99.90
20398;DHT22;10358;49.590;11.030;2023-07-20T02:05:20;18.30;99.90
20398;DHT22;10358;49.590;11.030;2023-07-20T02:07:45;18.30;99.90
20398;DHT22;10358;49.590;11.030;2023-07-20T02:10:11;18.30;99.90
20398;DHT22;10358;49.590;11.030;2023-07-20T02:12:36;18.30;99.90
20398;DHT22;10358;49.590;11.030;2023-07-20T02:15:03;18.30;99.90
20398;DHT22;10358;49.590;11.030;2023-07-20T02:17:28;18.30;99.90
20398;DHT22;10358;49.590;11.030;2023-07-20T02:19:55;18.30;99.90
20398;DHT22;10358;49.590;11.030;2023-07-20T02:22:21;18.20;99.90
20398;DHT22;10358;49.590;11.030;2023-07-20T02:24:47;18.10;99.90
20398;DHT22;10358;49.590;11.030;2023-07-20T02:27:12;18.10;99.90
20398;DHT22;10358;49.590;11.030;2023-07-20T02:29:40;18.10;99.90
20398;DHT22;10358;49.590;11.030;2023-07-20T02:32:06;18.00;99.90
20398;DHT22;10358;49.590;11.030;2023-07-20T02:34:31;18.00;99.90
20398;DHT22;10358;49.590;11.030;2023-07-20T02:36:57;18.00;99.90
20398;DHT22;10358;49.590;11.030;2023-07-20T02:39:24;17.80;99.90
20398;DHT22;10358;49.590;11.030;2023-07-20T02:41:49;17.80;99.90
20398;DHT22;10358;49.590;11.030;2023-07-20T02:44:15;17.80;99.90
20398;DHT22;10358;49.590;11.030;2023-07-20T02:46:41;17.70;99.90
20398;DHT22;10358;49.590;11.030;2023-07-20T02:49:07;17.70;99.90
20398;DHT22;10358;49.590;11.030;2023-07-20T02:51:32;17.70;99.90
20398;DHT22;10358;49.590;11.030;2023-07-20T02:53:58;17.70;99.90
20398;DHT22;10358;49.590;11.030;2023-07-20T02:56:24;17.70;99.90
20398;DHT22;10358;49.590;11.030;2023-07-20T02:58:49;17.70;99.90
20398;DHT22;10358;49.590;11.030;2023-07-20T03:01:15;17.70;99.90
20398;DHT22;10358;49.590;11.030;2023-07-20T03:03:42;17.70;99.90
20398;DHT22;10358;49.590;11.030;2023-07-20T03:06:12;17.60;99.90
20398;DHT22;10358;49.590;11.030;2023-07-20T03:08:38;17.70;99.90
20398;DHT22;10358;49.590;11.030;2023-07-20T03:11:03;17.60;99.90
20398;DHT22;10358;49.590;11.030;2023-07-20T03:13:29;17.60;99.90
20398;DHT22;10358;49.590;11.030;2023-07-20T03:15:55;17.70;99.90
20398;DHT22;10358;49.590;11.030;2023-07-20T03:18:20;17.60;99.90
20398;DHT22;10358;49.590;11.030;2023-07-20T03:20:46;17.60;99.90
20398;DHT22;10358;49.590;11.030;2023-07-20T03:23:11;17.60;99.90
20398;DHT22;10358;49.590;11.030;2023-07-20T03:25:37;17.60;99.90
20398;DHT22;10358;49.590;11.030;2023-07-20T03:28:04;17.70;99.90
20398;DHT22;10358;49.590;11.030;2023-07-20T03:30:29;17.70;99.90
20398;DHT22;10358;49.590;11.030;2023-07-20T03:32:55;17.70;99.90
20398;DHT22;10358;49.590;11.030;2023-07-20T03:35:20;17.70;99.90
20398;DHT22;10358;49.590;11.030;2023-07-20T03:37:46;17.70;99.90
20398;DHT22;10358;49.590;11.030;2023-07-20T03:40:11;17.70;99.90
20398;DHT22;10358;49.590;11.030;2023-07-20T03:42:37;17.70;99.90
20398;DHT22;10358;49.590;11.030;2023-07-20T03:45:04;17.80;99.90
20398;DHT22;10358;49.590;11.030;2023-07-20T03:47:30;17.80;99.90
20398;DHT22;10358;49.590;11.030;2023-07-20T03:49:58;17.80;99.90
20398;DHT22;10358;49.590;11.030;2023-07-20T03:52:24;17.70;99.90
20398;DHT22;10358;49.590;11.030;2023-07-20T03:54:49;17.80;99.90
20398;DHT22;10358;49.590;11.030;2023-07-20T03:57:16;17.80;99.90
20398;DHT22;10358;49.590;11.030;2023-07-20T03:59:45;17.80;99.90
20398;DHT22;10358;49.590;11.030;2023-07-20T04:02:11;17.80;99.90
20398;DHT22;10358;49.590;11.030;2023-07-20T04:04:37;17.80;99.90
20398;DHT22;10358;49.590;11.030;2023-07-20T04:07:02;17.80;99.90
20398;DHT22;10358;49.590;11.030;2023-07-20T04:09:28;17.80;99.90
20398;DHT22;10358;49.590;11.030;2023-07-20T04:11:54;17.80;99.90
20398;DHT22;10358;49.590;11.030;2023-07-20T04:14:20;17.80;99.90
20398;DHT22;10358;49.590;11.030;2023-07-20T04:16:48;17.90;99.90
20398;DHT22;10358;49.590;11.030;2023-07-20T04:19:14;17.80;99.90
20398;DHT22;10358;49.590;11.030;2023-07-20T04:21:40;17.90;99.90
20398;DHT22;10358;49.590;11.030;2023-07-20T04:24:09;17.90;99.90
20398;DHT22;10358;49.590;11.030;2023-07-20T04:26:34;18.00;99.90
20398;DHT22;10358;49.590;11.030;2023-07-20T04:29:00;18.10;99.90
20398;DHT22;10358;49.590;11.030;2023-07-20T04:31:26;18.00;99.90
20398;DHT22;10358;49.590;11.030;2023-07-20T04:33:51;17.90;99.90
20398;DHT22;10358;49.590;11.030;2023-07-20T04:36:17;17.90;99.90
20398;DHT22;10358;49.590;11.030;2023-07-20T04:38:47;17.90;99.90
20398;DHT22;10358;49.590;11.030;2023-07-20T04:41:13;17.90;99.90
20398;DHT22;10358;49.590;11.030;2023-07-20T04:43:43;17.90;99.90
20398;DHT22;10358;49.590;11.030;2023-07-20T04:46:09;18.00;99.90
20398;DHT22;10358;49.590;11.030;2023-07-20T04:48:35;18.00;99.90
20398;DHT22;10358;49.590;11.030;2023-07-20T04:51:01;18.00;99.90
20398;DHT22;10358;49.590;11.030;2023-07-20T04:53:26;18.00;99.90
20398;DHT22;10358;49.590;11.030;2023-07-20T04:55:52;17.90;99.90
20398;DHT22;10358;49.590;11.030;2023-07-20T04:58:18;17.80;99.90
20398;DHT22;10358;49.590;11.030;2023-07-20T05:00:44;17.90;99.90
20398;DHT22;10358;49.590;11.030;2023-07-20T05:03:10;17.90;99.90
20398;DHT22;10358;49.590;11.030;2023-07-20T05:05:35;17.90;99.90
20398;DHT22;10358;49.590;11.030;2023-07-20T05:08:01;17.80;99.90
20398;DHT22;10358;49.590;11.030;2023-07-20T05:10:26;17.80;99.90
20398;DHT22;10358;49.590;11.030;2023-07-20T05:12:52;17.70;99.90
20398;DHT22;10358;49.590;11.030;2023-07-20T05:15:17;17.80;99.90
20398;DHT22;10358;49.590;11.030;2023-07-20T05:17:44;17.70;99.90
20398;DHT22;10358;49.590;11.030;2023-07-20T05:20:09;17.70;99.90
20398;DHT22;10358;49.590;11.030;2023-07-20T05:22:36;17.80;99.90
20398;DHT22;10358;49.590;11.030;2023-07-20T05:25:08;17.80;99.90
20398;DHT22;10358;49.590;11.030;2023-07-20T05:27:36;17.90;99.90
20398;DHT22;10358;49.590;11.030;2023-07-20T05:30:02;17.90;99.90
20398;DHT22;10358;49.590;11.030;2023-07-20T05:32:28;17.90;99.90
20398;DHT22;10358;49.590;11.030;2023-07-20T05:34:54;17.80;99.90
20398;DHT22;10358;49.590;11.030;2023-07-20T05:37:20;17.90;99.90
20398;DHT22;10358;49.590;11.030;2023-07-20T05:39:46;17.80;99.90
20398;DHT22;10358;49.590;11.030;2023-07-20T05:42:11;17.80;99.90
20398;DHT22;10358;49.590;11.030;2023-07-20T05:44:37;17.80;99.90
20398;DHT22;10358;49.590;11.030;2023-07-20T05:47:03;17.80;99.90
20398;DHT22;10358;49.590;11.030;2023-07-20T05:49:29;17.80;99.90
20398;DHT22;10358;49.590;11.030;2023-07-20T05:51:55;17.80;99.90
20398;DHT22;10358;49.590;11.030;2023-07-20T05:54:21;17.80;99.90
20398;DHT22;10358;49.590;11.030;2023-07-20T05:56:47;17.80;99.90
20398;DHT22;10358;49.590;11.030;2023-07-20T05:59:13;17.90;99.90
20398;DHT22;10358;49.590;11.030;2023-07-20T06:01:38;18.00;99.90
20398;DHT22;10358;49.590;11.030;2023-07-20T06:04:04;18.10;99.90
20398;DHT22;10358;49.590;11.030;2023-07-20T06:06:29;18.20;99.90
20398;DHT22;10358;49.590;11.030;2023-07-20T06:08:55;18.20;99.90
20398;DHT22;10358;49.590;11.030;2023-07-20T06:11:20;18.20;99.90
20398;DHT22;10358;49.590;11.030;2023-07-20T06:13:46;18.20;99.90
20398;DHT22;10358;49.590;11.030;2023-07-20T06:16:11;18.20;99.90
20398;DHT22;10358;49.590;11.030;2023-07-20T06:18:37;18.30;99.90
20398;DHT22;10358;49.590;11.030;2023-07-20T06:21:03;18.50;99.90
20398;DHT22;10358;49.590;11.030;2023-07-20T06:23:28;18.50;99.90
20398;DHT22;10358;49.590;11.030;2023-07-20T06:25:54;18.60;99.90
20398;DHT22;10358;49.590;11.030;2023-07-20T06:28:19;18.70;99.90
20398;DHT22;10358;49.590;11.030;2023-07-20T06:30:45;18.70;99.90
20398;DHT22;10358;49.590;11.030;2023-07-20T06:33:11;18.70;99.90
20398;DHT22;10358;49.590;11.030;2023-07-20T06:35:36;18.70;99.90
20398;DHT22;10358;49.590;11.030;2023-07-20T06:38:02;18.70;99.90
20398;DHT22;10358;49.590;11.030;2023-07-20T06:40:29;18.80;99.90
20398;DHT22;10358;49.590;11.030;2023-07-20T06:42:55;18.90;99.90
20398;DHT22;10358;49.590;11.030;2023-07-20T06:45:21;18.90;99.90
20398;DHT22;10358;49.590;11.030;2023-07-20T06:47:46;19.00;99.90
20398;DHT22;10358;49.590;11.030;2023-07-20T06:50:12;19.10;99.90
20398;DHT22;10358;49.590;11.030;2023-07-20T06:52:38;19.10;99.90
20398;DHT22;10358;49.590;11.030;2023-07-20T06:55:05;19.10;99.90
20398;DHT22;10358;49.590;11.030;2023-07-20T06:57:31;19.20;99.90
20398;DHT22;10358;49.590;11.030;2023-07-20T06:59:57;19.10;99.90
20398;DHT22;10358;49.590;11.030;2023-07-20T07:02:22;19.10;99.90
20398;DHT22;10358;49.590;11.030;2023-07-20T07:04:48;19.20;99.90
20398;DHT22;10358;49.590;11.030;2023-07-20T07:07:14;19.30;99.90
20398;DHT22;10358;49.590;11.030;2023-07-20T07:09:40;19.40;99.90
20398;DHT22;10358;49.590;11.030;2023-07-20T07:12:06;19.40;99.90
20398;DHT22;10358;49.590;11.030;2023-07-20T07:14:32;19.40;99.90
20398;DHT22;10358;49.590;11.030;2023-07-20T07:16:58;19.40;99.90
20398;DHT22;10358;49.590;11.030;2023-07-20T07:19:23;19.50;99.90
20398;DHT22;10358;49.590;11.030;2023-07-20T07:21:49;19.60;99.90
20398;DHT22;10358;49.590;11.030;2023-07-20T07:24:14;19.70;99.90
20398;DHT22;10358;49.590;11.030;2023-07-20T07:26:40;19.70;99.90
20398;DHT22;10358;49.590;11.030;2023-07-20T07:29:05;19.70;99.90
20398;DHT22;10358;49.590;11.030;2023-07-20T07:31:34;19.80;99.90
20398;DHT22;10358;49.590;11.030;2023-07-20T07:34:00;19.90;99.90
20398;DHT22;10358;49.590;11.030;2023-07-20T07:36:26;20.10;99.90
20398;DHT22;10358;49.590;11.030;2023-07-20T07:38:51;20.20;99.90
20398;DHT22;10358;49.590;11.030;2023-07-20T07:41:17;20.30;99.90
20398;DHT22;10358;49.590;11.030;2023-07-20T07:43:42;20.40;99.90
20398;DHT22;10358;49.590;11.030;2023-07-20T07:46:08;20.50;99.90
20398;DHT22;10358;49.590;11.030;2023-07-20T07:48:34;20.50;99.90
20398;DHT22;10358;49.590;11.030;2023-07-20T07:50:59;20.50;99.90
20398;DHT22;10358;49.590;11.030;2023-07-20T07:53:25;20.50;99.90
20398;DHT22;10358;49.590;11.030;2023-07-20T07:55:51;20.60;99.90
20398;DHT22;10358;49.590;11.030;2023-07-20T07:58:18;20.60;99.90
20398;DHT22;10358;49.590;11.030;2023-07-20T08:00:43;20.70;99.90
20398;DHT22;10358;49.590;11.030;2023-07-20T08:03:09;20.80;99.90
20398;DHT22;10358;49.590;11.030;2023-07-20T08:05:35;20.90;99.90
20398;DHT22;10358;49.590;11.030;2023-07-20T08:08:02;20.90;99.90
20398;DHT22;10358;49.590;11.030;2023-07-20T08:10:29;20.90;99.90
20398;DHT22;10358;49.590;11.030;2023-07-20T08:12:54;20.90;99.90
20398;DHT22;10358;49.590;11.030;2023-07-20T08:15:20;20.80;99.90
20398;DHT22;10358;49.590;11.030;2023-07-20T08:17:46;20.80;99.90
20398;DHT22;10358;49.590;11.030;2023-07-20T08:20:12;20.90;99.90
20398;DHT22;10358;49.590;11.030;2023-07-20T08:22:38;20.80;99.90
20398;DHT22;10358;49.590;11.030;2023-07-20T08:25:08;20.80;99.90
20398;DHT22;10358;49.590;11.030;2023-07-20T08:27:34;20.90;99.90
20398;DHT22;10358;49.590;11.030;2023-07-20T08:30:00;20.90;99.90
20398;DHT22;10358;49.590;11.030;2023-07-20T08:32:26;20.90;99.90
20398;DHT22;10358;49.590;11.030;2023-07-20T08:34:52;20.80;99.90
20398;DHT22;10358;49.590;11.030;2023-07-20T08:37:17;20.80;99.90
20398;DHT22;10358;49.590;11.030;2023-07-20T08:39:43;20.80;99.90
20398;DHT22;10358;49.590;11.030;2023-07-20T08:42:09;20.90;99.90
20398;DHT22;10358;49.590;11.030;2023-07-20T08:44:36;21.00;99.90
20398;DHT22;10358;49.590;11.030;2023-07-20T08:47:04;21.00;99.90
20398;DHT22;10358;49.590;11.030;2023-07-20T08:49:34;21.00;99.90
20398;DHT22;10358;49.590;11.030;2023-07-20T08:52:00;21.20;99.90
20398;DHT22;10358;49.590;11.030;2023-07-20T08:54:30;21.40;99.90
20398;DHT22;10358;49.590;11.030;2023-07-20T08:57:02;21.30;99.90
20398;DHT22;10358;49.590;11.030;2023-07-20T08:59:29;21.40;99.90
20398;DHT22;10358;49.590;11.030;2023-07-20T09:01:59;21.60;99.90
20398;DHT22;10358;49.590;11.030;2023-07-20T09:04:24;21.70;99.90
20398;DHT22;10358;49.590;11.030;2023-07-20T09:06:50;21.70;99.90
20398;DHT22;10358;49.590;11.030;2023-07-20T09:09:16;21.80;99.90
20398;DHT22;10358;49.590;11.030;2023-07-20T09:11:42;22.00;99.90
20398;DHT22;10358;49.590;11.030;2023-07-20T09:14:09;22.20;99.90
20398;DHT22;10358;49.590;11.030;2023-07-20T09:16:53;22.50;99.90
20398;DHT22;10358;49.590;11.030;2023-07-20T09:19:20;22.70;99.90
20398;DHT22;10358;49.590;11.030;2023-07-20T09:21:50;22.70;99.90
20398;DHT22;10358;49.590;11.030;2023-07-20T09:24:19;22.60;99.90
20398;DHT22;10358;49.590;11.030;2023-07-20T09:26:46;22.50;99.90
20398;DHT22;10358;49.590;11.030;2023-07-20T09:29:19;22.40;99.90
20398;DHT22;10358;49.590;11.030;2023-07-20T09:34:24;22.40;99.90
20398;DHT22;10358;49.590;11.030;2023-07-20T09:36:51;22.40;99.90
20398;DHT22;10358;49.590;11.030;2023-07-20T09:39:16;22.50;99.90
20398;DHT22;10358;49.590;11.030;2023-07-20T09:41:42;22.60;99.90
20398;DHT22;10358;49.590;11.030;2023-07-20T09:44:08;22.60;98.70
20398;DHT22;10358;49.590;11.030;2023-07-20T09:46:49;22.50;98.70
20398;DHT22;10358;49.590;11.030;2023-07-20T09:49:14;22.40;98.00
20398;DHT22;10358;49.590;11.030;2023-07-20T09:51:42;22.40;97.20
20398;DHT22;10358;49.590;11.030;2023-07-20T09:54:10;22.40;97.30
20398;DHT22;10358;49.590;11.030;2023-07-20T09:56:38;22.40;97.10
20398;DHT22;10358;49.590;11.030;2023-07-20T09:59:04;22.40;95.90
20398;DHT22;10358;49.590;11.030;2023-07-20T10:01:30;22.30;95.20
20398;DHT22;10358;49.590;11.030;2023-07-20T10:03:58;22.30;94.90
20398;DHT22;10358;49.590;11.030;2023-07-20T10:06:24;22.40;94.60
20398;DHT22;10358;49.590;11.030;2023-07-20T10:08:53;22.50;94.50
20398;DHT22;10358;49.590;11.030;2023-07-20T10:11:22;22.50;93.50
20398;DHT22;10358;49.590;11.030;2023-07-20T10:13:53;22.60;93.80
20398;DHT22;10358;49.590;11.030;2023-07-20T10:16:28;22.50;90.70
20398;DHT22;10358;49.590;11.030;2023-07-20T10:19:29;22.40;90.10
20398;DHT22;10358;49.590;11.030;2023-07-20T10:22:03;22.40;90.40
20398;DHT22;10358;49.590;11.030;2023-07-20T10:24:29;22.50;90.70
20398;DHT22;10358;49.590;11.030;2023-07-20T10:26:57;22.60;90.50
20398;DHT22;10358;49.590;11.030;2023-07-20T10:29:23;22.70;87.40
20398;DHT22;10358;49.590;11.030;2023-07-20T10:31:50;22.90;86.10
20398;DHT22;10358;49.590;11.030;2023-07-20T10:34:16;23.00;87.00
20398;DHT22;10358;49.590;11.030;2023-07-20T10:36:46;23.20;83.20
20398;DHT22;10358;49.590;11.030;2023-07-20T10:39:26;23.20;82.90
20398;DHT22;10358;49.590;11.030;2023-07-20T10:42:03;23.30;80.00
20398;DHT22;10358;49.590;11.030;2023-07-20T10:44:29;23.30;78.20
20398;DHT22;10358;49.590;11.030;2023-07-20T10:47:02;23.30;77.90
20398;DHT22;10358;49.590;11.030;2023-07-20T10:49:28;23.50;76.50
20398;DHT22;10358;49.590;11.030;2023-07-20T10:51:58;23.60;75.60
20398;DHT22;10358;49.590;11.030;2023-07-20T10:56:55;23.70;75.50
20398;DHT22;10358;49.590;11.030;2023-07-20T11:01:50;23.60;74.20
20398;DHT22;10358;49.590;11.030;2023-07-20T11:04:41;23.60;75.00
20398;DHT22;10358;49.590;11.030;2023-07-20T11:07:06;23.80;74.00
20398;DHT22;10358;49.590;11.030;2023-07-20T11:09:41;23.80;74.10
20398;DHT22;10358;49.590;11.030;2023-07-20T11:12:16;24.00;74.20
20398;DHT22;10358;49.590;11.030;2023-07-20T11:14:52;24.10;74.10
20398;DHT22;10358;49.590;11.030;2023-07-20T11:17:19;24.00;72.50
20398;DHT22;10358;49.590;11.030;2023-07-20T11:19:55;24.00;72.40
20398;DHT22;10358;49.590;11.030;2023-07-20T11:22:21;23.70;72.10
20398;DHT22;10358;49.590;11.030;2023-07-20T11:24:47;23.60;73.10
20398;DHT22;10358;49.590;11.030;2023-07-20T11:27:14;23.50;73.90
20398;DHT22;10358;49.590;11.030;2023-07-20T11:29:40;23.40;74.30
20398;DHT22;10358;49.590;11.030;2023-07-20T11:32:06;23.20;75.20
20398;DHT22;10358;49.590;11.030;2023-07-20T11:34:33;23.20;76.00
20398;DHT22;10358;49.590;11.030;2023-07-20T11:36:59;23.20;77.00
20398;DHT22;10358;49.590;11.030;2023-07-20T11:39:25;23.00;77.10
20398;DHT22;10358;49.590;11.030;2023-07-20T11:41:53;22.90;77.70
20398;DHT22;10358;49.590;11.030;2023-07-20T11:44:24;22.90;78.10
20398;DHT22;10358;49.590;11.030;2023-07-20T11:47:12;22.80;78.00
20398;DHT22;10358;49.590;11.030;2023-07-20T11:49:39;22.90;77.20
20398;DHT22;10358;49.590;11.030;2023-07-20T11:52:09;23.20;77.70
20398;DHT22;10358;49.590;11.030;2023-07-20T11:54:36;23.40;74.10
20398;DHT22;10358;49.590;11.030;2023-07-20T11:57:03;23.60;73.50
20398;DHT22;10358;49.590;11.030;2023-07-20T11:59:30;23.80;72.90
20398;DHT22;10358;49.590;11.030;2023-07-20T12:01:57;23.90;72.00
20398;DHT22;10358;49.590;11.030;2023-07-20T12:04:25;24.00;70.30
20398;DHT22;10358;49.590;11.030;2023-07-20T12:06:54;24.00;66.70
20398;DHT22;10358;49.590;11.030;2023-07-20T12:09:20;24.10;64.00
20398;DHT22;10358;49.590;11.030;2023-07-20T12:11:49;24.30;64.40
20398;DHT22;10358;49.590;11.030;2023-07-20T12:14:15;24.30;61.80
20398;DHT22;10358;49.590;11.030;2023-07-20T12:16:41;24.30;61.60
20398;DHT22;10358;49.590;11.030;2023-07-20T12:19:11;24.20;61.90
20398;DHT22;10358;49.590;11.030;2023-07-20T12:21:39;24.30;61.30
20398;DHT22;10358;49.590;11.030;2023-07-20T12:24:06;24.30;62.40
20398;DHT22;10358;49.590;11.030;2023-07-20T12:26:32;24.40;63.00
20398;DHT22;10358;49.590;11.030;2023-07-20T12:28:59;24.40;64.00
20398;DHT22;10358;49.590;11.030;2023-07-20T12:31:26;24.50;64.10
20398;DHT22;10358;49.590;11.030;2023-07-20T12:33:52;24.70;64.40
20398;DHT22;10358;49.590;11.030;2023-07-20T12:36:18;24.60;62.50
20398;DHT22;10358;49.590;11.030;2023-07-20T12:38:44;24.70;62.90
20398;DHT22;10358;49.590;11.030;2023-07-20T12:41:11;24.90;62.30
20398;DHT22;10358;49.590;11.030;2023-07-20T12:43:38;25.20;61.10
20398;DHT22;10358;49.590;11.030;2023-07-20T12:46:04;25.20;57.20
20398;DHT22;10358;49.590;11.030;2023-07-20T12:48:30;25.10;58.50
20398;DHT22;10358;49.590;11.030;2023-07-20T12:50:55;25.30;59.20
20398;DHT22;10358;49.590;11.030;2023-07-20T12:53:21;25.50;57.80
20398;DHT22;10358;49.590;11.030;2023-07-20T12:55:47;25.60;57.10
20398;DHT22;10358;49.590;11.030;2023-07-20T12:58:13;25.70;57.50
20398;DHT22;10358;49.590;11.030;2023-07-20T13:00:39;25.80;57.10
20398;DHT22;10358;49.590;11.030;2023-07-20T13:03:05;25.80;57.60
20398;DHT22;10358;49.590;11.030;2023-07-20T13:05:32;25.90;57.80
20398;DHT22;10358;49.590;11.030;2023-07-20T13:07:58;25.70;57.40
20398;DHT22;10358;49.590;11.030;2023-07-20T13:10:24;25.70;57.70
20398;DHT22;10358;49.590;11.030;2023-07-20T13:12:50;25.60;57.10
20398;DHT22;10358;49.590;11.030;2023-07-20T13:15:17;25.50;57.30
20398;DHT22;10358;49.590;11.030;2023-07-20T13:17:43;25.50;56.70
20398;DHT22;10358;49.590;11.030;2023-07-20T13:20:10;25.50;56.80
20398;DHT22;10358;49.590;11.030;2023-07-20T13:22:40;25.50;56.40
20398;DHT22;10358;49.590;11.030;2023-07-20T13:25:06;25.40;56.80
20398;DHT22;10358;49.590;11.030;2023-07-20T13:27:33;25.50;56.20
20398;DHT22;10358;49.590;11.030;2023-07-20T13:30:00;25.60;55.60
20398;DHT22;10358;49.590;11.030;2023-07-20T13:32:26;25.50;55.20
20398;DHT22;10358;49.590;11.030;2023-07-20T13:34:52;25.20;55.20
20398;DHT22;10358;49.590;11.030;2023-07-20T13:37:18;25.20;55.80
20398;DHT22;10358;49.590;11.030;2023-07-20T13:39:44;25.40;55.50
20398;DHT22;10358;49.590;11.030;2023-07-20T13:42:10;25.50;54.30
20398;DHT22;10358;49.590;11.030;2023-07-20T13:44:37;25.70;54.80
20398;DHT22;10358;49.590;11.030;2023-07-20T13:47:03;25.90;55.00
20398;DHT22;10358;49.590;11.030;2023-07-20T13:49:31;26.10;54.80
20398;DHT22;10358;49.590;11.030;2023-07-20T13:51:56;26.30;53.00
20398;DHT22;10358;49.590;11.030;2023-07-20T13:54:26;26.40;52.40
20398;DHT22;10358;49.590;11.030;2023-07-20T13:56:51;26.60;52.20
20398;DHT22;10358;49.590;11.030;2023-07-20T13:59:17;26.90;52.00
20398;DHT22;10358;49.590;11.030;2023-07-20T14:01:43;27.20;49.80
20398;DHT22;10358;49.590;11.030;2023-07-20T14:04:08;27.40;50.50
20398;DHT22;10358;49.590;11.030;2023-07-20T14:06:34;27.70;50.40
20398;DHT22;10358;49.590;11.030;2023-07-20T14:09:00;28.00;49.30
20398;DHT22;10358;49.590;11.030;2023-07-20T14:11:26;28.30;49.10
20398;DHT22;10358;49.590;11.030;2023-07-20T14:13:54;28.70;49.10
20398;DHT22;10358;49.590;11.030;2023-07-20T14:16:20;29.30;47.70
20398;DHT22;10358;49.590;11.030;2023-07-20T14:18:46;29.50;47.10
20398;DHT22;10358;49.590;11.030;2023-07-20T14:21:14;29.50;47.00
20398;DHT22;10358;49.590;11.030;2023-07-20T14:23:40;29.40;45.30
20398;DHT22;10358;49.590;11.030;2023-07-20T14:26:05;29.00;44.80
20398;DHT22;10358;49.590;11.030;2023-07-20T14:28:32;29.00;45.40
20398;DHT22;10358;49.590;11.030;2023-07-20T14:31:00;29.40;44.90
20398;DHT22;10358;49.590;11.030;2023-07-20T14:33:26;29.50;45.00
20398;DHT22;10358;49.590;11.030;2023-07-20T14:35:52;29.70;45.20
20398;DHT22;10358;49.590;11.030;2023-07-20T14:38:17;30.10;44.40
20398;DHT22;10358;49.590;11.030;2023-07-20T14:40:43;30.60;44.20
20398;DHT22;10358;49.590;11.030;2023-07-20T14:43:10;31.00;42.20
20398;DHT22;10358;49.590;11.030;2023-07-20T14:45:35;30.20;42.00
20398;DHT22;10358;49.590;11.030;2023-07-20T14:48:03;29.60;42.20
20398;DHT22;10358;49.590;11.030;2023-07-20T14:50:29;29.20;42.30
20398;DHT22;10358;49.590;11.030;2023-07-20T14:52:54;29.10;43.10
20398;DHT22;10358;49.590;11.030;2023-07-20T14:55:20;29.80;43.10
20398;DHT22;10358;49.590;11.030;2023-07-20T14:57:45;30.60;41.80
20398;DHT22;10358;49.590;11.030;2023-07-20T15:00:11;30.70;40.80
20398;DHT22;10358;49.590;11.030;2023-07-20T15:02:37;30.70;41.40
20398;DHT22;10358;49.590;11.030;2023-07-20T15:05:06;30.90;39.80
20398;DHT22;10358;49.590;11.030;2023-07-20T15:07:31;31.00;39.90
20398;DHT22;10358;49.590;11.030;2023-07-20T15:09:57;31.40;40.60
20398;DHT22;10358;49.590;11.030;2023-07-20T15:12:23;31.60;39.80
20398;DHT22;10358;49.590;11.030;2023-07-20T15:15:03;31.80;39.20
20398;DHT22;10358;49.590;11.030;2023-07-20T15:17:30;31.40;39.10
20398;DHT22;10358;49.590;11.030;2023-07-20T15:19:55;30.80;39.90
20398;DHT22;10358;49.590;11.030;2023-07-20T15:22:21;29.50;41.40
20398;DHT22;10358;49.590;11.030;2023-07-20T15:24:47;28.40;42.70
20398;DHT22;10358;49.590;11.030;2023-07-20T15:27:13;28.20;43.60